PILOTS ONLINE: 238    ATC ONLINE: 40

KFHU - Sierra Vista Municipal Libby Army Air Field

Location

IATA FHU
City Fort Huachuca Sierra Vista
Country  United States
Latitude 31° 35' 18" N
Longitude 110° 20' 38" W
Elevation 4719 ft
Type Medium Airport

Runways

03/21 4285 ft / 75 ft
08/26 12001 ft / 150 ft
12/30 5366 ft / 100 ft

Weather

METAR
2014/07/24 03:55
KFHU 240355Z 00000KT 10SM FEW130 28/13 A3018 RMK SLP149
TAF
2014/07/24 03:09
TAF TAF KFHU 2403/2509 VRB06KT 9999 SCT110 SCT280 QNH3015INS 
      BECMG 2416/2417 12012KT 9999 FEW250 QNH3011INS 
      BECMG 2502/2503 VRB06KT 9999 SCT120 QNH3014INS TX34/2423Z TN21/2412Z

Outbound flights

Inbound flights